sensor_id;sensor_type;location;lat;lon;timestamp;pressure;altitude;pressure_sealevel;temperature;humidity
47811;BME280;33575;52.600;7.318;2023-06-01T00:02:25;102243.13;;;11.79;89.68
47811;BME280;33575;52.600;7.318;2023-06-01T00:04:56;102234.27;;;11.59;90.26
47811;BME280;33575;52.600;7.318;2023-06-01T00:07:27;102234.61;;;11.56;90.33
47811;BME280;33575;52.600;7.318;2023-06-01T00:09:57;102235.25;;;11.69;89.90
47811;BME280;33575;52.600;7.318;2023-06-01T00:12:28;102232.13;;;11.53;90.57
47811;BME280;33575;52.600;7.318;2023-06-01T00:14:58;102229.50;;;11.59;90.25
47811;BME280;33575;52.600;7.318;2023-06-01T00:17:28;102228.81;;;11.41;90.70
47811;BME280;33575;52.600;7.318;2023-06-01T00:19:58;102227.12;;;11.49;90.22
47811;BME280;33575;52.600;7.318;2023-06-01T00:22:29;102228.37;;;11.44;90.03
47811;BME280;33575;52.600;7.318;2023-06-01T00:25:00;102226.48;;;11.47;89.91
47811;BME280;33575;52.600;7.318;2023-06-01T00:27:31;102221.48;;;11.59;89.38
47811;BME280;33575;52.600;7.318;2023-06-01T00:30:02;102219.57;;;11.62;89.45
47811;BME280;33575;52.600;7.318;2023-06-01T00:32:32;102223.96;;;11.71;89.02
47811;BME280;33575;52.600;7.318;2023-06-01T00:35:02;102222.69;;;11.79;88.83
47811;BME280;33575;52.600;7.318;2023-06-01T00:37:33;102219.37;;;11.91;88.42
47811;BME280;33575;52.600;7.318;2023-06-01T00:40:04;102219.33;;;11.95;87.78
47811;BME280;33575;52.600;7.318;2023-06-01T00:42:34;102223.34;;;11.93;87.45
47811;BME280;33575;52.600;7.318;2023-06-01T00:45:05;102225.72;;;11.82;87.58
47811;BME280;33575;52.600;7.318;2023-06-01T00:47:40;102224.01;;;11.92;87.17
47811;BME280;33575;52.600;7.318;2023-06-01T00:50:06;102224.36;;;11.70;87.93
47811;BME280;33575;52.600;7.318;2023-06-01T00:52:37;102220.33;;;11.61;88.33
47811;BME280;33575;52.600;7.318;2023-06-01T00:55:10;102221.16;;;11.37;89.57
47811;BME280;33575;52.600;7.318;2023-06-01T00:57:38;102221.35;;;11.45;88.66
47811;BME280;33575;52.600;7.318;2023-06-01T01:00:09;102225.00;;;11.38;89.35
47811;BME280;33575;52.600;7.318;2023-06-01T01:02:40;102218.02;;;11.43;89.07
47811;BME280;33575;52.600;7.318;2023-06-01T01:05:09;102218.78;;;11.43;89.18
47811;BME280;33575;52.600;7.318;2023-06-01T01:07:51;102217.96;;;11.47;89.18
47811;BME280;33575;52.600;7.318;2023-06-01T01:10:16;102222.66;;;11.53;88.85
47811;BME280;33575;52.600;7.318;2023-06-01T01:12:45;102219.54;;;11.59;88.50
47811;BME280;33575;52.600;7.318;2023-06-01T01:15:17;102219.95;;;11.58;88.49
47811;BME280;33575;52.600;7.318;2023-06-01T01:17:44;102219.66;;;11.60;88.63
47811;BME280;33575;52.600;7.318;2023-06-01T01:20:14;102219.38;;;11.62;88.70
47811;BME280;33575;52.600;7.318;2023-06-01T01:22:52;102216.52;;;11.70;88.44
47811;BME280;33575;52.600;7.318;2023-06-01T01:25:20;102218.74;;;11.82;88.09
47811;BME280;33575;52.600;7.318;2023-06-01T01:27:51;102217.91;;;11.75;88.18
47811;BME280;33575;52.600;7.318;2023-06-01T01:30:13;102217.98;;;11.83;88.00
47811;BME280;33575;52.600;7.318;2023-06-01T01:32:44;102218.70;;;11.72;88.00
47811;BME280;33575;52.600;7.318;2023-06-01T01:35:15;102215.29;;;11.64;88.09
47811;BME280;33575;52.600;7.318;2023-06-01T01:37:49;102216.62;;;11.59;88.60
47811;BME280;33575;52.600;7.318;2023-06-01T01:40:14;102219.53;;;11.57;88.50
47811;BME280;33575;52.600;7.318;2023-06-01T01:42:45;102216.41;;;11.52;88.59
47811;BME280;33575;52.600;7.318;2023-06-01T01:45:17;102217.76;;;11.52;88.76
47811;BME280;33575;52.600;7.318;2023-06-01T01:47:51;102221.09;;;11.43;88.74
47811;BME280;33575;52.600;7.318;2023-06-01T01:50:21;102219.20;;;11.28;89.09
47811;BME280;33575;52.600;7.318;2023-06-01T01:52:48;102222.98;;;11.18;89.09
47811;BME280;33575;52.600;7.318;2023-06-01T01:55:18;102211.54;;;11.22;88.63
47811;BME280;33575;52.600;7.318;2023-06-01T01:57:49;102213.11;;;11.19;88.71
47811;BME280;33575;52.600;7.318;2023-06-01T02:00:19;102209.87;;;11.08;89.11
47811;BME280;33575;52.600;7.318;2023-06-01T02:02:50;102206.44;;;11.11;89.11
47811;BME280;33575;52.600;7.318;2023-06-01T02:05:20;102206.98;;;10.91;89.68
47811;BME280;33575;52.600;7.318;2023-06-01T02:07:51;102200.44;;;11.10;89.00
47811;BME280;33575;52.600;7.318;2023-06-01T02:10:22;102199.24;;;11.17;88.89
47811;BME280;33575;52.600;7.318;2023-06-01T02:12:52;102202.44;;;11.16;88.92
47811;BME280;33575;52.600;7.318;2023-06-01T02:15:23;102206.86;;;11.02;89.14
47811;BME280;33575;52.600;7.318;2023-06-01T02:17:54;102205.81;;;10.79;89.96
47811;BME280;33575;52.600;7.318;2023-06-01T02:20:25;102204.33;;;10.66;90.68
47811;BME280;33575;52.600;7.318;2023-06-01T02:22:55;102201.03;;;10.68;90.49
47811;BME280;33575;52.600;7.318;2023-06-01T02:25:25;102200.43;;;10.73;90.51
47811;BME280;33575;52.600;7.318;2023-06-01T02:27:55;102196.11;;;10.89;89.85
47811;BME280;33575;52.600;7.318;2023-06-01T02:30:26;102194.97;;;10.90;89.85
47811;BME280;33575;52.600;7.318;2023-06-01T02:32:57;102190.44;;;10.89;90.08
47811;BME280;33575;52.600;7.318;2023-06-01T02:35:27;102184.66;;;10.95;89.81
47811;BME280;33575;52.600;7.318;2023-06-01T02:37:57;102181.31;;;10.85;90.52
47811;BME280;33575;52.600;7.318;2023-06-01T02:40:27;102178.75;;;11.00;89.68
47811;BME280;33575;52.600;7.318;2023-06-01T02:42:58;102181.54;;;11.00;89.84
47811;BME280;33575;52.600;7.318;2023-06-01T02:45:28;102181.19;;;11.06;89.57
47811;BME280;33575;52.600;7.318;2023-06-01T02:47:58;102179.45;;;10.88;89.92
47811;BME280;33575;52.600;7.318;2023-06-01T02:50:29;102181.22;;;10.90;89.84
47811;BME280;33575;52.600;7.318;2023-06-01T02:53:00;102181.15;;;10.88;89.72
47811;BME280;33575;52.600;7.318;2023-06-01T02:55:31;102184.44;;;10.85;89.96
47811;BME280;33575;52.600;7.318;2023-06-01T02:58:01;102185.70;;;10.91;89.42
47811;BME280;33575;52.600;7.318;2023-06-01T03:00:32;102190.00;;;10.77;89.94
47811;BME280;33575;52.600;7.318;2023-06-01T03:03:03;102185.93;;;10.82;89.60
47811;BME280;33575;52.600;7.318;2023-06-01T03:05:33;102183.85;;;10.75;89.50
47811;BME280;33575;52.600;7.318;2023-06-01T03:08:04;102182.65;;;10.84;89.27
47811;BME280;33575;52.600;7.318;2023-06-01T03:10:34;102183.50;;;10.81;89.58
47811;BME280;33575;52.600;7.318;2023-06-01T03:13:04;102183.17;;;10.94;89.13
47811;BME280;33575;52.600;7.318;2023-06-01T03:15:35;102180.98;;;10.98;88.73
47811;BME280;33575;52.600;7.318;2023-06-01T03:18:05;102181.33;;;10.98;88.78
47811;BME280;33575;52.600;7.318;2023-06-01T03:20:35;102180.19;;;10.97;88.97
47811;BME280;33575;52.600;7.318;2023-06-01T03:23:06;102184.29;;;11.04;88.80
47811;BME280;33575;52.600;7.318;2023-06-01T03:25:36;102180.93;;;11.12;88.41
47811;BME280;33575;52.600;7.318;2023-06-01T03:28:07;102182.55;;;11.07;88.89
47811;BME280;33575;52.600;7.318;2023-06-01T03:30:37;102180.80;;;10.88;89.34
47811;BME280;33575;52.600;7.318;2023-06-01T03:33:08;102176.00;;;10.72;90.06
47811;BME280;33575;52.600;7.318;2023-06-01T03:35:38;102171.54;;;10.66;90.26
47811;BME280;33575;52.600;7.318;2023-06-01T03:38:08;102172.26;;;10.60;90.43
47811;BME280;33575;52.600;7.318;2023-06-01T03:40:39;102171.94;;;10.60;90.78
47811;BME280;33575;52.600;7.318;2023-06-01T03:43:10;102169.70;;;10.54;91.30
47811;BME280;33575;52.600;7.318;2023-06-01T03:45:40;102170.18;;;10.55;91.49
47811;BME280;33575;52.600;7.318;2023-06-01T03:48:10;102170.97;;;10.72;91.04
47811;BME280;33575;52.600;7.318;2023-06-01T03:50:41;102166.89;;;10.76;91.09
47811;BME280;33575;52.600;7.318;2023-06-01T03:53:11;102165.17;;;10.87;90.49
47811;BME280;33575;52.600;7.318;2023-06-01T03:55:42;102161.71;;;10.91;90.16
47811;BME280;33575;52.600;7.318;2023-06-01T03:58:12;102165.94;;;10.81;90.42
47811;BME280;33575;52.600;7.318;2023-06-01T04:00:43;102162.53;;;11.02;89.71
47811;BME280;33575;52.600;7.318;2023-06-01T04:03:14;102163.23;;;10.91;90.33
47811;BME280;33575;52.600;7.318;2023-06-01T04:05:44;102161.96;;;10.92;90.30
47811;BME280;33575;52.600;7.318;2023-06-01T04:08:14;102164.31;;;11.05;90.03
47811;BME280;33575;52.600;7.318;2023-06-01T04:10:44;102163.00;;;11.10;90.29
47811;BME280;33575;52.600;7.318;2023-06-01T04:13:15;102159.01;;;11.26;89.59
47811;BME280;33575;52.600;7.318;2023-06-01T04:15:45;102164.34;;;11.13;89.96
47811;BME280;33575;52.600;7.318;2023-06-01T04:18:16;102159.59;;;11.07;90.25
47811;BME280;33575;52.600;7.318;2023-06-01T04:20:46;102161.31;;;11.10;90.16
47811;BME280;33575;52.600;7.318;2023-06-01T04:23:17;102159.21;;;11.04;90.73
47811;BME280;33575;52.600;7.318;2023-06-01T04:25:47;102151.90;;;10.97;90.86
47811;BME280;33575;52.600;7.318;2023-06-01T04:28:18;102151.92;;;10.83;91.78
47811;BME280;33575;52.600;7.318;2023-06-01T04:30:48;102151.09;;;10.79;92.08
47811;BME280;33575;52.600;7.318;2023-06-01T04:33:18;102154.47;;;10.70;92.67
47811;BME280;33575;52.600;7.318;2023-06-01T04:35:48;102150.39;;;10.87;92.33
47811;BME280;33575;52.600;7.318;2023-06-01T04:38:19;102151.00;;;11.01;91.78
47811;BME280;33575;52.600;7.318;2023-06-01T04:40:50;102155.88;;;11.12;91.34
47811;BME280;33575;52.600;7.318;2023-06-01T04:43:20;102157.03;;;11.22;91.05
47811;BME280;33575;52.600;7.318;2023-06-01T04:45:51;102158.77;;;11.32;90.79
47811;BME280;33575;52.600;7.318;2023-06-01T04:48:21;102158.28;;;11.29;90.82
47811;BME280;33575;52.600;7.318;2023-06-01T04:50:52;102160.96;;;11.22;90.91
47811;BME280;33575;52.600;7.318;2023-06-01T04:53:22;102163.69;;;11.35;90.98
47811;BME280;33575;52.600;7.318;2023-06-01T04:55:53;102162.02;;;11.43;90.43
47811;BME280;33575;52.600;7.318;2023-06-01T04:58:23;102162.38;;;11.40;90.58
47811;BME280;33575;52.600;7.318;2023-06-01T05:00:54;102163.28;;;11.36;90.68
47811;BME280;33575;52.600;7.318;2023-06-01T05:03:24;102165.39;;;11.20;91.49
47811;BME280;33575;52.600;7.318;2023-06-01T05:05:55;102162.58;;;11.24;91.34
47811;BME280;33575;52.600;7.318;2023-06-01T05:08:25;102158.75;;;11.19;91.82
47811;BME280;33575;52.600;7.318;2023-06-01T05:10:56;102158.85;;;11.25;91.88
47811;BME280;33575;52.600;7.318;2023-06-01T05:13:26;102159.81;;;11.22;91.75
47811;BME280;33575;52.600;7.318;2023-06-01T05:15:57;102160.47;;;11.21;91.94
47811;BME280;33575;52.600;7.318;2023-06-01T05:18:27;102161.16;;;11.22;92.15
47811;BME280;33575;52.600;7.318;2023-06-01T05:20:58;102162.15;;;11.34;91.60
47811;BME280;33575;52.600;7.318;2023-06-01T05:23:29;102166.64;;;11.40;91.75
47811;BME280;33575;52.600;7.318;2023-06-01T05:25:59;102165.02;;;11.44;91.57
47811;BME280;33575;52.600;7.318;2023-06-01T05:28:30;102161.16;;;11.38;92.06
47811;BME280;33575;52.600;7.318;2023-06-01T05:31:01;102156.19;;;11.34;92.43
47811;BME280;33575;52.600;7.318;2023-06-01T05:33:30;102155.23;;;11.32;92.74
47811;BME280;33575;52.600;7.318;2023-06-01T05:36:01;102155.05;;;11.08;93.77
47811;BME280;33575;52.600;7.318;2023-06-01T05:38:31;102153.77;;;11.08;94.29
47811;BME280;33575;52.600;7.318;2023-06-01T05:41:02;102153.62;;;10.98;94.69
47811;BME280;33575;52.600;7.318;2023-06-01T05:43:35;102156.96;;;10.95;94.84
47811;BME280;33575;52.600;7.318;2023-06-01T05:46:03;102156.47;;;10.98;94.90
47811;BME280;33575;52.600;7.318;2023-06-01T05:48:33;102161.69;;;11.14;94.57
47811;BME280;33575;52.600;7.318;2023-06-01T05:51:04;102159.33;;;11.15;94.60
47811;BME280;33575;52.600;7.318;2023-06-01T05:53:34;102158.42;;;11.13;94.70
47811;BME280;33575;52.600;7.318;2023-06-01T05:56:06;102161.31;;;11.09;95.12
47811;BME280;33575;52.600;7.318;2023-06-01T05:58:36;102162.12;;;10.91;95.37
47811;BME280;33575;52.600;7.318;2023-06-01T06:01:06;102161.06;;;10.86;95.88
47811;BME280;33575;52.600;7.318;2023-06-01T06:03:37;102166.40;;;10.59;96.95
47811;BME280;33575;52.600;7.318;2023-06-01T06:06:07;102164.78;;;10.53;97.71
47811;BME280;33575;52.600;7.318;2023-06-01T06:08:38;102161.54;;;10.71;97.18
47811;BME280;33575;52.600;7.318;2023-06-01T06:11:09;102164.40;;;10.84;96.90
47811;BME280;33575;52.600;7.318;2023-06-01T06:13:39;102160.04;;;10.87;97.11
47811;BME280;33575;52.600;7.318;2023-06-01T06:16:10;102159.49;;;10.91;96.84
47811;BME280;33575;52.600;7.318;2023-06-01T06:18:40;102165.46;;;10.69;97.88
47811;BME280;33575;52.600;7.318;2023-06-01T06:21:10;102165.38;;;10.81;97.22
47811;BME280;33575;52.600;7.318;2023-06-01T06:23:41;102169.35;;;10.79;97.44
47811;BME280;33575;52.600;7.318;2023-06-01T06:26:11;102168.94;;;10.84;97.38
47811;BME280;33575;52.600;7.318;2023-06-01T06:28:42;102170.37;;;10.82;96.63
47811;BME280;33575;52.600;7.318;2023-06-01T06:31:12;102167.10;;;10.91;96.22
47811;BME280;33575;52.600;7.318;2023-06-01T06:33:43;102160.35;;;10.93;96.10
47811;BME280;33575;52.600;7.318;2023-06-01T06:36:13;102159.34;;;10.99;95.91
47811;BME280;33575;52.600;7.318;2023-06-01T06:38:44;102160.96;;;11.12;96.06
47811;BME280;33575;52.600;7.318;2023-06-01T06:41:14;102160.60;;;11.22;95.44
47811;BME280;33575;52.600;7.318;2023-06-01T06:43:44;102159.46;;;11.32;95.65
47811;BME280;33575;52.600;7.318;2023-06-01T06:46:15;102161.85;;;11.30;95.98
47811;BME280;33575;52.600;7.318;2023-06-01T06:48:45;102162.85;;;11.34;95.90
47811;BME280;33575;52.600;7.318;2023-06-01T06:51:16;102164.66;;;11.37;97.12
47811;BME280;33575;52.600;7.318;2023-06-01T06:53:46;102172.65;;;11.39;96.36
47811;BME280;33575;52.600;7.318;2023-06-01T06:56:17;102175.89;;;11.50;96.17
47811;BME280;33575;52.600;7.318;2023-06-01T06:58:52;102176.19;;;11.63;95.43
47811;BME280;33575;52.600;7.318;2023-06-01T07:01:18;102175.74;;;11.67;95.66
47811;BME280;33575;52.600;7.318;2023-06-01T07:03:48;102170.27;;;11.72;95.14
47811;BME280;33575;52.600;7.318;2023-06-01T07:06:19;102171.82;;;11.78;95.11
47811;BME280;33575;52.600;7.318;2023-06-01T07:08:49;102169.93;;;11.72;94.98
47811;BME280;33575;52.600;7.318;2023-06-01T07:11:19;102168.03;;;11.72;95.05
47811;BME280;33575;52.600;7.318;2023-06-01T07:13:50;102162.19;;;11.70;94.92
47811;BME280;33575;52.600;7.318;2023-06-01T07:16:20;102165.29;;;11.46;95.81
47811;BME280;33575;52.600;7.318;2023-06-01T07:18:51;102162.19;;;11.61;94.53
47811;BME280;33575;52.600;7.318;2023-06-01T07:21:21;102162.79;;;11.61;94.42
47811;BME280;33575;52.600;7.318;2023-06-01T07:23:52;102168.76;;;11.55;94.58
47811;BME280;33575;52.600;7.318;2023-06-01T07:26:22;102170.07;;;11.63;94.35
47811;BME280;33575;52.600;7.318;2023-06-01T07:28:53;102169.78;;;11.52;94.32
47811;BME280;33575;52.600;7.318;2023-06-01T07:31:23;102171.31;;;11.52;94.59
47811;BME280;33575;52.600;7.318;2023-06-01T07:33:54;102169.25;;;11.64;93.97
47811;BME280;33575;52.600;7.318;2023-06-01T07:36:24;102170.15;;;11.69;94.28
47811;BME280;33575;52.600;7.318;2023-06-01T07:38:55;102169.91;;;11.67;94.18
47811;BME280;33575;52.600;7.318;2023-06-01T07:41:25;102173.78;;;11.72;95.04
47811;BME280;33575;52.600;7.318;2023-06-01T07:43:55;102172.68;;;11.59;95.59
47811;BME280;33575;52.600;7.318;2023-06-01T07:46:26;102176.34;;;11.68;95.17
47811;BME280;33575;52.600;7.318;2023-06-01T07:48:56;102178.52;;;11.53;95.48
47811;BME280;33575;52.600;7.318;2023-06-01T07:51:26;102175.37;;;11.64;94.94
47811;BME280;33575;52.600;7.318;2023-06-01T07:53:57;102176.44;;;11.51;95.29
47811;BME280;33575;52.600;7.318;2023-06-01T07:56:28;102175.40;;;11.29;95.40
47811;BME280;33575;52.600;7.318;2023-06-01T07:58:58;102179.29;;;11.45;95.41
47811;BME280;33575;52.600;7.318;2023-06-01T08:01:29;102178.60;;;11.50;93.94
47811;BME280;33575;52.600;7.318;2023-06-01T08:03:59;102179.98;;;11.40;94.08
47811;BME280;33575;52.600;7.318;2023-06-01T08:06:30;102174.49;;;11.51;94.14
47811;BME280;33575;52.600;7.318;2023-06-01T08:09:00;102168.89;;;11.53;93.55
47811;BME280;33575;52.600;7.318;2023-06-01T08:11:31;102167.96;;;11.52;93.69
47811;BME280;33575;52.600;7.318;2023-06-01T08:14:02;102165.55;;;11.69;93.57
47811;BME280;33575;52.600;7.318;2023-06-01T08:16:32;102163.59;;;11.60;94.46
47811;BME280;33575;52.600;7.318;2023-06-01T08:19:02;102157.02;;;11.86;92.93
47811;BME280;33575;52.600;7.318;2023-06-01T08:21:33;102152.16;;;12.01;92.68
47811;BME280;33575;52.600;7.318;2023-06-01T08:24:03;102154.62;;;12.10;91.93
47811;BME280;33575;52.600;7.318;2023-06-01T08:26:34;102150.98;;;12.13;92.40
47811;BME280;33575;52.600;7.318;2023-06-01T08:29:04;102140.68;;;12.33;92.10
47811;BME280;33575;52.600;7.318;2023-06-01T08:31:34;102145.40;;;12.22;91.69
47811;BME280;33575;52.600;7.318;2023-06-01T08:34:05;102140.64;;;12.25;91.40
47811;BME280;33575;52.600;7.318;2023-06-01T08:36:35;102136.32;;;12.41;91.90
47811;BME280;33575;52.600;7.318;2023-06-01T08:41:40;102135.15;;;12.54;91.20
47811;BME280;33575;52.600;7.318;2023-06-01T08:44:08;102128.58;;;12.67;90.47
47811;BME280;33575;52.600;7.318;2023-06-01T08:46:40;102129.42;;;12.77;90.27
47811;BME280;33575;52.600;7.318;2023-06-01T08:49:12;102134.57;;;12.78;89.98
47811;BME280;33575;52.600;7.318;2023-06-01T08:51:39;102133.22;;;12.86;90.26
47811;BME280;33575;52.600;7.318;2023-06-01T08:54:09;102131.75;;;12.91;90.68
47811;BME280;33575;52.600;7.318;2023-06-01T08:56:40;102137.51;;;12.90;90.22
47811;BME280;33575;52.600;7.318;2023-06-01T08:59:11;102135.12;;;12.96;89.59
47811;BME280;33575;52.600;7.318;2023-06-01T09:01:41;102140.15;;;12.76;90.38
47811;BME280;33575;52.600;7.318;2023-06-01T09:04:11;102134.15;;;12.77;90.70
47811;BME280;33575;52.600;7.318;2023-06-01T09:06:41;102133.89;;;12.81;90.93
47811;BME280;33575;52.600;7.318;2023-06-01T09:09:12;102133.30;;;12.59;91.29
47811;BME280;33575;52.600;7.318;2023-06-01T09:11:42;102133.77;;;12.49;92.38
47811;BME280;33575;52.600;7.318;2023-06-01T09:14:20;102135.04;;;12.51;92.68
47811;BME280;33575;52.600;7.318;2023-06-01T09:16:43;102137.89;;;12.46;93.43
47811;BME280;33575;52.600;7.318;2023-06-01T09:19:13;102131.49;;;12.56;93.87
47811;BME280;33575;52.600;7.318;2023-06-01T09:24:18;102127.18;;;12.69;94.82
47811;BME280;33575;52.600;7.318;2023-06-01T09:26:47;102120.56;;;12.88;93.82
47811;BME280;33575;52.600;7.318;2023-06-01T09:29:16;102119.24;;;13.00;92.90
47811;BME280;33575;52.600;7.318;2023-06-01T09:31:47;102119.50;;;13.08;92.41
47811;BME280;33575;52.600;7.318;2023-06-01T09:34:18;102116.55;;;12.96;92.92
47811;BME280;33575;52.600;7.318;2023-06-01T09:36:48;102116.75;;;12.81;93.96
47811;BME280;33575;52.600;7.318;2023-06-01T09:39:18;102110.18;;;12.66;93.59
47811;BME280;33575;52.600;7.318;2023-06-01T09:41:49;102113.63;;;12.66;92.71
47811;BME280;33575;52.600;7.318;2023-06-01T09:44:23;102114.00;;;12.68;93.34
47811;BME280;33575;52.600;7.318;2023-06-01T09:46:49;102115.87;;;12.75;93.45
47811;BME280;33575;52.600;7.318;2023-06-01T09:49:20;102113.77;;;12.79;92.47
47811;BME280;33575;52.600;7.318;2023-06-01T09:51:49;102112.07;;;12.80;92.30
47811;BME280;33575;52.600;7.318;2023-06-01T09:54:24;102111.56;;;12.84;91.83
47811;BME280;33575;52.600;7.318;2023-06-01T09:56:50;102108.41;;;12.68;92.06
47811;BME280;33575;52.600;7.318;2023-06-01T09:59:21;102105.59;;;12.70;92.10
47811;BME280;33575;52.600;7.318;2023-06-01T10:01:53;102099.97;;;12.75;91.67
47811;BME280;33575;52.600;7.318;2023-06-01T10:04:23;102096.80;;;12.71;91.77
47811;BME280;33575;52.600;7.318;2023-06-01T10:06:54;102095.06;;;12.90;91.62
47811;BME280;33575;52.600;7.318;2023-06-01T10:09:24;102097.64;;;12.99;91.25
47811;BME280;33575;52.600;7.318;2023-06-01T10:11:54;102098.72;;;12.98;91.68
47811;BME280;33575;52.600;7.318;2023-06-01T10:14:24;102099.73;;;12.97;91.31
47811;BME280;33575;52.600;7.318;2023-06-01T10:16:54;102099.49;;;12.56;93.48
47811;BME280;33575;52.600;7.318;2023-06-01T10:19:24;102103.90;;;12.72;93.16
47811;BME280;33575;52.600;7.318;2023-06-01T10:21:56;102098.68;;;12.83;92.16
47811;BME280;33575;52.600;7.318;2023-06-01T10:24:25;102100.43;;;12.93;91.97
47811;BME280;33575;52.600;7.318;2023-06-01T10:27:01;102096.49;;;13.03;91.81
47811;BME280;33575;52.600;7.318;2023-06-01T10:29:28;102100.86;;;13.09;91.79
47811;BME280;33575;52.600;7.318;2023-06-01T10:31:56;102100.06;;;13.02;92.13
47811;BME280;33575;52.600;7.318;2023-06-01T10:34:36;102101.88;;;12.90;92.18
47811;BME280;33575;52.600;7.318;2023-06-01T10:39:29;102101.47;;;12.68;92.74
47811;BME280;33575;52.600;7.318;2023-06-01T10:46:59;102101.56;;;12.71;92.25
47811;BME280;33575;52.600;7.318;2023-06-01T10:54:30;102102.75;;;12.77;91.76
47811;BME280;33575;52.600;7.318;2023-06-01T10:59:31;102103.13;;;12.38;93.20
47811;BME280;33575;52.600;7.318;2023-06-01T11:02:04;102097.18;;;12.58;92.55
47811;BME280;33575;52.600;7.318;2023-06-01T11:04:36;102095.00;;;12.68;92.63
47811;BME280;33575;52.600;7.318;2023-06-01T11:09:43;102090.84;;;12.63;92.94
47811;BME280;33575;52.600;7.318;2023-06-01T11:12:05;102090.49;;;12.78;92.01
47811;BME280;33575;52.600;7.318;2023-06-01T11:14:35;102092.53;;;12.53;93.19
47811;BME280;33575;52.600;7.318;2023-06-01T11:19:36;102087.38;;;12.64;93.22
47811;BME280;33575;52.600;7.318;2023-06-01T11:22:08;102091.40;;;12.59;94.57
47811;BME280;33575;52.600;7.318;2023-06-01T11:24:37;102091.50;;;12.47;94.47
47811;BME280;33575;52.600;7.318;2023-06-01T11:27:09;102091.57;;;12.59;94.35
47811;BME280;33575;52.600;7.318;2023-06-01T11:29:38;102087.05;;;12.54;94.27
47811;BME280;33575;52.600;7.318;2023-06-01T11:32:08;102078.76;;;12.63;93.30
47811;BME280;33575;52.600;7.318;2023-06-01T11:34:39;102083.73;;;12.90;92.44
47811;BME280;33575;52.600;7.318;2023-06-01T11:37:12;102084.07;;;12.90;92.62
47811;BME280;33575;52.600;7.318;2023-06-01T11:39:40;102085.33;;;12.93;92.27
47811;BME280;33575;52.600;7.318;2023-06-01T11:42:14;102084.29;;;12.69;93.34
47811;BME280;33575;52.600;7.318;2023-06-01T11:44:42;102086.45;;;12.60;93.11
47811;BME280;33575;52.600;7.318;2023-06-01T11:47:12;102092.64;;;12.56;93.24
47811;BME280;33575;52.600;7.318;2023-06-01T11:49:42;102093.15;;;12.35;93.07
47811;BME280;33575;52.600;7.318;2023-06-01T11:52:11;102090.81;;;12.53;92.72
47811;BME280;33575;52.600;7.318;2023-06-01T11:54:42;102086.74;;;12.43;92.36
47811;BME280;33575;52.600;7.318;2023-06-01T11:57:13;102083.88;;;12.57;91.94
47811;BME280;33575;52.600;7.318;2023-06-01T11:59:44;102081.98;;;12.79;91.61
47811;BME280;33575;52.600;7.318;2023-06-01T12:02:17;102080.78;;;12.85;90.43
47811;BME280;33575;52.600;7.318;2023-06-01T12:07:13;102077.31;;;12.85;89.40
47811;BME280;33575;52.600;7.318;2023-06-01T12:09:44;102076.98;;;12.90;89.36
47811;BME280;33575;52.600;7.318;2023-06-01T12:12:14;102075.55;;;13.01;89.11
47811;BME280;33575;52.600;7.318;2023-06-01T12:14:45;102078.80;;;13.05;89.07
47811;BME280;33575;52.600;7.318;2023-06-01T12:17:15;102079.01;;;12.86;88.89
47811;BME280;33575;52.600;7.318;2023-06-01T12:19:46;102077.71;;;12.85;88.54
47811;BME280;33575;52.600;7.318;2023-06-01T12:22:17;102073.04;;;12.92;87.93
47811;BME280;33575;52.600;7.318;2023-06-01T12:24:47;102071.35;;;12.85;87.57
47811;BME280;33575;52.600;7.318;2023-06-01T12:27:17;102075.24;;;12.50;88.04
47811;BME280;33575;52.600;7.318;2023-06-01T12:29:47;102070.19;;;12.63;87.18
47811;BME280;33575;52.600;7.318;2023-06-01T12:32:17;102069.44;;;12.67;88.83
47811;BME280;33575;52.600;7.318;2023-06-01T12:37:19;102065.79;;;13.01;86.08
47811;BME280;33575;52.600;7.318;2023-06-01T12:39:53;102064.01;;;13.14;84.57
47811;BME280;33575;52.600;7.318;2023-06-01T12:42:25;102066.10;;;13.12;83.96
47811;BME280;33575;52.600;7.318;2023-06-01T12:44:52;102061.27;;;13.13;83.04
47811;BME280;33575;52.600;7.318;2023-06-01T12:47:20;102061.82;;;13.31;83.47
47811;BME280;33575;52.600;7.318;2023-06-01T12:52:21;102057.04;;;13.47;82.83
47811;BME280;33575;52.600;7.318;2023-06-01T12:54:51;102060.29;;;13.52;82.40
47811;BME280;33575;52.600;7.318;2023-06-01T12:57:22;102058.22;;;13.50;81.76
47811;BME280;33575;52.600;7.318;2023-06-01T12:59:52;102051.54;;;13.47;81.75
47811;BME280;33575;52.600;7.318;2023-06-01T13:02:23;102050.70;;;13.77;82.54
47811;BME280;33575;52.600;7.318;2023-06-01T13:04:53;102055.72;;;13.82;81.43
47811;BME280;33575;52.600;7.318;2023-06-01T13:07:24;102051.00;;;13.84;80.84
47811;BME280;33575;52.600;7.318;2023-06-01T13:09:54;102049.69;;;13.86;80.63
47811;BME280;33575;52.600;7.318;2023-06-01T13:12:25;102044.37;;;14.04;80.65
47811;BME280;33575;52.600;7.318;2023-06-01T13:14:55;102044.54;;;14.14;80.80
47811;BME280;33575;52.600;7.318;2023-06-01T13:17:25;102048.38;;;14.08;79.06
47811;BME280;33575;52.600;7.318;2023-06-01T13:19:56;102055.56;;;13.99;79.44
47811;BME280;33575;52.600;7.318;2023-06-01T13:22:26;102047.26;;;13.93;79.29
47811;BME280;33575;52.600;7.318;2023-06-01T13:25:02;102047.04;;;14.03;79.70
47811;BME280;33575;52.600;7.318;2023-06-01T13:27:27;102051.42;;;14.28;79.42
47811;BME280;33575;52.600;7.318;2023-06-01T13:29:57;102047.69;;;14.36;77.91
47811;BME280;33575;52.600;7.318;2023-06-01T13:32:28;102043.63;;;14.65;77.88
47811;BME280;33575;52.600;7.318;2023-06-01T13:34:59;102048.18;;;14.64;77.91
47811;BME280;33575;52.600;7.318;2023-06-01T13:37:29;102050.01;;;14.42;76.56
47811;BME280;33575;52.600;7.318;2023-06-01T13:40:00;102047.44;;;14.54;77.46